Time;durP1;ratioP1;P1;durP2;ratioP2;P2;SDS_P1;SDS_P2;PMS_P1;PMS_P2;Temp;Humidity;BMP_temperature;BMP_pressure;BME280_temperature;BME280_humidity;BME280_pressure;Samples;Min_cycle;Max_cycle;Signal;HPM_P1;HPM_P2
2022/01/28 00:04:46;;;;;;;6.80;2.95;;;5.60;99.90;;;;;;4995833;28;20219;-58
2022/01/28 00:07:12;;;;;;;10.15;2.75;;;5.50;99.90;;;;;;4995720;28;20230;-59
2022/01/28 00:09:38;;;;;;;11.98;3.58;;;5.50;99.90;;;;;;4996149;28;20534;-59
2022/01/28 00:12:04;;;;;;;10.35;3.80;;;5.40;99.90;;;;;;4995796;28;20577;-59
2022/01/28 00:17:37;;;;;;;9.63;3.70;;;5.40;99.90;;;;;;4995641;28;20519;-59
2022/01/28 00:36:59;;;;;;;11.30;4.10;;;5.30;99.90;;;;;;4995137;28;20262;-59
2022/01/28 00:39:25;;;;;;;9.88;3.67;;;5.30;99.90;;;;;;4995328;28;20630;-60
2022/01/28 00:41:51;;;;;;;11.38;4.00;;;5.20;99.90;;;;;;4995308;28;20226;-60
2022/01/28 00:44:16;;;;;;;11.32;4.68;;;5.30;99.90;;;;;;4994939;28;20181;-58
2022/01/28 00:46:42;;;;;;;11.15;4.05;;;5.30;99.90;;;;;;4994952;28;20614;-61
2022/01/28 00:49:08;;;;;;;10.00;3.78;;;5.30;99.90;;;;;;4994812;28;20183;-57
2022/01/28 00:51:33;;;;;;;11.90;4.38;;;5.30;99.90;;;;;;4994695;28;20203;-60
2022/01/28 00:53:59;;;;;;;10.48;4.55;;;5.30;99.90;;;;;;4994941;28;20268;-58
2022/01/28 00:56:25;;;;;;;9.55;4.40;;;5.20;99.90;;;;;;4994930;28;20226;-58
2022/01/28 00:58:51;;;;;;;10.05;4.65;;;5.20;99.90;;;;;;4994684;28;20630;-58
2022/01/28 01:01:16;;;;;;;15.30;4.55;;;5.20;99.90;;;;;;4993257;28;20270;-59
2022/01/28 01:03:42;;;;;;;11.15;4.30;;;5.10;99.90;;;;;;4994885;28;20276;-59
2022/01/28 01:06:08;;;;;;;14.23;4.50;;;5.10;99.90;;;;;;4994503;28;20184;-60
2022/01/28 01:08:33;;;;;;;12.15;4.20;;;5.00;99.90;;;;;;5009834;28;20180;-59
2022/01/28 01:10:59;;;;;;;9.77;4.25;;;5.10;99.90;;;;;;4994282;28;20548;-60
2022/01/28 01:13:25;;;;;;;11.75;4.53;;;5.00;99.90;;;;;;4994498;28;20607;-59
2022/01/28 01:15:55;;;;;;;12.63;4.30;;;5.00;99.90;;;;;;5009510;28;20200;-58
2022/01/28 01:18:27;;;;;;;11.55;4.55;;;5.00;99.90;;;;;;4994936;28;20191;-59
2022/01/28 01:21:04;;;;;;;15.35;5.35;;;5.00;99.90;;;;;;4994407;28;20274;-61
2022/01/28 01:23:34;;;;;;;16.25;4.97;;;5.00;99.90;;;;;;4994470;28;20194;-61
2022/01/28 01:28:33;;;;;;;16.58;4.72;;;5.00;99.90;;;;;;4994257;28;20191;-61
2022/01/28 01:31:01;;;;;;;10.10;4.35;;;5.00;99.90;;;;;;4994439;28;20319;-61
2022/01/28 01:33:29;;;;;;;11.73;4.80;;;4.90;99.90;;;;;;4994334;28;20188;-58
2022/01/28 01:35:55;;;;;;;12.38;4.35;;;4.90;99.90;;;;;;5009015;28;20188;-60
2022/01/28 01:38:26;;;;;;;10.40;4.38;;;4.90;99.90;;;;;;4994041;28;20185;-58
2022/01/28 01:40:55;;;;;;;11.35;4.50;;;4.70;99.90;;;;;;4993942;28;20681;-59
2022/01/28 01:46:15;;;;;;;11.65;4.85;;;4.70;99.90;;;;;;5009019;28;20188;-59
2022/01/28 01:54:10;;;;;;;10.45;4.97;;;4.80;99.90;;;;;;4994221;28;20242;-59
2022/01/28 01:56:38;;;;;;;16.17;4.95;;;4.80;99.90;;;;;;4994231;28;20630;-59
2022/01/28 01:59:04;;;;;;;14.20;4.75;;;4.70;99.90;;;;;;4993981;28;20255;-59
2022/01/28 02:01:30;;;;;;;10.60;4.20;;;4.70;99.90;;;;;;4993645;28;20245;-61
2022/01/28 02:03:56;;;;;;;8.73;4.25;;;4.70;99.90;;;;;;4993852;28;20181;-58
2022/01/28 02:06:23;;;;;;;15.38;5.00;;;4.60;99.90;;;;;;5009146;28;20553;-59
2022/01/28 02:08:49;;;;;;;12.60;5.45;;;4.40;99.90;;;;;;4993850;28;20184;-60
2022/01/28 02:11:15;;;;;;;9.77;5.47;;;4.40;99.90;;;;;;4993802;28;20247;-59
2022/01/28 02:13:47;;;;;;;12.77;5.38;;;4.30;99.90;;;;;;4993784;28;20231;-58
2022/01/28 02:16:13;;;;;;;11.68;6.07;;;4.20;99.90;;;;;;4993600;28;20594;-59
2022/01/28 02:18:39;;;;;;;12.43;5.85;;;4.20;99.90;;;;;;4993626;28;20184;-58
2022/01/28 02:21:08;;;;;;;10.25;6.00;;;4.20;99.90;;;;;;4993818;28;20693;-60
2022/01/28 02:23:34;;;;;;;14.50;7.05;;;4.10;99.90;;;;;;4997092;28;20188;-59
2022/01/28 02:26:02;;;;;;;13.23;6.78;;;4.20;99.90;;;;;;5012870;28;20634;-59
2022/01/28 02:28:31;;;;;;;14.38;6.72;;;4.20;99.90;;;;;;4997541;28;20188;-59
2022/01/28 02:30:57;;;;;;;15.80;6.78;;;4.20;99.90;;;;;;4997365;28;20275;-58
2022/01/28 02:33:25;;;;;;;16.60;7.13;;;4.10;99.90;;;;;;4997699;28;20682;-59
2022/01/28 02:35:51;;;;;;;15.50;7.95;;;4.10;99.90;;;;;;4997593;28;20176;-58
2022/01/28 02:38:23;;;;;;;13.82;7.57;;;4.20;99.90;;;;;;4997412;28;20177;-59
2022/01/28 02:40:56;;;;;;;14.57;7.85;;;4.20;99.90;;;;;;4997725;28;20731;-58
2022/01/28 02:45:52;;;;;;;11.95;7.68;;;4.20;99.90;;;;;;5012521;28;20191;-59
2022/01/28 02:48:25;;;;;;;14.30;8.10;;;4.20;99.90;;;;;;4997287;28;20327;-58
2022/01/28 02:53:49;;;;;;;17.45;8.60;;;4.20;99.90;;;;;;4997232;28;20204;-58
2022/01/28 02:56:21;;;;;;;14.57;7.88;;;4.10;99.90;;;;;;4997303;28;20200;-58
2022/01/28 02:58:48;;;;;;;15.40;7.63;;;4.10;99.90;;;;;;4997408;28;20184;-58
2022/01/28 03:01:16;;;;;;;14.65;8.00;;;4.00;99.90;;;;;;4997118;28;20207;-59
2022/01/28 03:03:43;;;;;;;16.17;7.93;;;4.00;99.90;;;;;;4996902;28;20187;-59
2022/01/28 03:06:10;;;;;;;15.85;8.52;;;4.00;99.90;;;;;;4996886;28;20189;-59
2022/01/28 03:08:36;;;;;;;13.48;7.85;;;3.90;99.90;;;;;;4996777;28;20648;-59
2022/01/28 03:16:15;;;;;;;13.23;8.18;;;3.90;99.90;;;;;;5009981;28;20553;-61
2022/01/28 03:19:11;;;;;;;15.88;9.18;;;3.90;99.90;;;;;;5011187;28;20537;-61
2022/01/28 03:23:55;;;;;;;16.60;8.90;;;3.80;99.90;;;;;;5011855;28;20291;-59
2022/01/28 03:26:22;;;;;;;16.17;8.32;;;3.80;99.90;;;;;;5011663;28;20187;-58
2022/01/28 03:28:48;;;;;;;18.73;8.68;;;3.90;99.90;;;;;;4996441;28;20637;-61
2022/01/28 03:31:14;;;;;;;15.23;8.37;;;3.90;99.90;;;;;;4996418;28;20180;-58
2022/01/28 03:33:39;;;;;;;16.75;8.57;;;3.90;99.90;;;;;;4996139;28;20181;-59
2022/01/28 03:36:10;;;;;;;13.63;8.03;;;3.90;99.90;;;;;;4996507;28;20181;-58
2022/01/28 03:38:38;;;;;;;16.03;8.47;;;3.80;99.90;;;;;;4996523;28;20185;-58
2022/01/28 03:41:05;;;;;;;17.20;8.23;;;3.90;99.90;;;;;;4996347;28;20204;-59
2022/01/28 03:43:31;;;;;;;15.50;8.15;;;3.90;99.90;;;;;;4996217;28;20254;-60
2022/01/28 03:45:57;;;;;;;16.80;9.20;;;3.90;99.90;;;;;;4996147;28;20184;-60
2022/01/28 03:48:23;;;;;;;15.53;8.33;;;3.80;99.90;;;;;;5011444;28;20176;-58
2022/01/28 03:50:51;;;;;;;20.30;8.50;;;3.80;99.90;;;;;;4996164;28;20186;-60
2022/01/28 03:53:18;;;;;;;18.90;8.77;;;3.80;99.90;;;;;;4996078;28;20192;-60
2022/01/28 03:55:44;;;;;;;20.58;8.90;;;3.80;99.90;;;;;;4996054;28;20177;-58
2022/01/28 03:58:09;;;;;;;19.00;9.20;;;3.80;99.90;;;;;;4995930;28;20193;-61
2022/01/28 04:00:35;;;;;;;15.90;9.10;;;3.90;99.90;;;;;;4995697;28;20214;-61
2022/01/28 04:13:30;;;;;;;19.27;9.02;;;3.80;99.90;;;;;;5008876;28;20196;-61
2022/01/28 04:18:25;;;;;;;19.17;8.23;;;3.70;99.90;;;;;;4995666;28;20596;-58
2022/01/28 04:20:51;;;;;;;16.38;9.07;;;3.70;99.90;;;;;;4995471;28;20669;-61
2022/01/28 04:23:18;;;;;;;20.88;8.55;;;3.70;99.90;;;;;;4995413;28;20216;-60
2022/01/28 04:25:44;;;;;;;15.77;8.80;;;3.70;99.90;;;;;;4996036;28;20180;-60
2022/01/28 04:28:10;;;;;;;17.27;8.93;;;3.70;99.90;;;;;;5010473;28;20180;-60
2022/01/28 04:30:35;;;;;;;18.67;8.07;;;3.70;99.90;;;;;;4995500;28;20271;-60
2022/01/28 04:33:01;;;;;;;15.40;8.07;;;3.70;99.90;;;;;;4995458;28;20191;-60
2022/01/28 04:35:27;;;;;;;14.88;7.95;;;3.60;99.90;;;;;;4995209;28;20176;-60
2022/01/28 04:40:40;;;;;;;14.25;7.97;;;3.50;99.90;;;;;;4995279;28;20312;-60
2022/01/28 04:43:19;;;;;;;16.63;8.27;;;3.50;99.90;;;;;;4995199;28;20200;-60
2022/01/28 04:46:00;;;;;;;11.75;7.60;;;3.40;99.90;;;;;;5007954;28;20557;-60
2022/01/28 04:48:36;;;;;;;10.20;6.95;;;3.40;99.90;;;;;;4994952;28;20176;-60
2022/01/28 04:53:51;;;;;;;19.95;8.18;;;3.30;99.90;;;;;;4994808;28;20211;-60
2022/01/28 05:02:19;;;;;;;12.97;7.33;;;3.30;99.90;;;;;;4994823;28;20306;-59
2022/01/28 05:07:55;;;;;;;13.87;6.97;;;3.20;99.90;;;;;;4958633;28;20198;-59
2022/01/28 05:26:33;;;;;;;14.47;7.60;;;3.30;99.90;;;;;;4994608;28;20203;-59
2022/01/28 05:29:00;;;;;;;18.13;8.43;;;3.20;99.90;;;;;;4994424;28;20182;-59
2022/01/28 05:31:25;;;;;;;16.63;7.90;;;3.30;99.90;;;;;;5009533;28;20235;-59
2022/01/28 05:33:51;;;;;;;14.57;8.23;;;3.20;99.90;;;;;;4994187;28;20188;-59
2022/01/28 05:36:17;;;;;;;17.53;8.17;;;3.20;99.90;;;;;;4994244;28;20260;-59
2022/01/28 05:38:43;;;;;;;13.00;8.00;;;3.20;99.90;;;;;;4994311;28;20176;-60
2022/01/28 05:41:09;;;;;;;14.40;7.83;;;3.20;99.90;;;;;;4992897;28;20204;-59
2022/01/28 05:43:34;;;;;;;12.10;7.65;;;3.20;99.90;;;;;;4994060;28;20717;-59
2022/01/28 05:46:00;;;;;;;15.13;7.97;;;3.10;99.90;;;;;;4994163;28;20284;-59
2022/01/28 05:48:26;;;;;;;16.10;7.47;;;3.10;99.90;;;;;;4994081;28;20657;-59
2022/01/28 05:50:51;;;;;;;17.50;8.03;;;3.20;99.90;;;;;;4993855;28;20264;-59
2022/01/28 05:53:17;;;;;;;14.17;8.13;;;3.10;99.90;;;;;;4994158;28;20196;-59
2022/01/28 05:55:43;;;;;;;14.87;7.90;;;3.10;99.90;;;;;;4994070;28;20203;-61
2022/01/28 05:58:08;;;;;;;17.00;8.38;;;3.10;99.90;;;;;;4994229;28;20188;-60
2022/01/28 06:00:34;;;;;;;13.87;7.80;;;3.20;99.90;;;;;;4993857;28;20184;-59
2022/01/28 06:03:00;;;;;;;19.17;8.60;;;3.20;99.90;;;;;;5008710;28;20231;-59
2022/01/28 06:05:30;;;;;;;15.20;8.23;;;3.10;99.90;;;;;;5008865;28;20181;-59
2022/01/28 06:08:00;;;;;;;17.70;8.73;;;3.20;99.90;;;;;;5008526;28;20184;-60
2022/01/28 06:10:26;;;;;;;16.67;9.13;;;3.20;99.90;;;;;;4993894;28;20181;-59
2022/01/28 06:12:52;;;;;;;16.37;8.17;;;3.20;99.90;;;;;;5008948;28;20213;-59
2022/01/28 06:15:18;;;;;;;14.27;7.97;;;3.20;99.90;;;;;;4990748;28;20273;-58
2022/01/28 06:17:44;;;;;;;14.40;8.23;;;3.20;99.90;;;;;;4993543;28;20173;-59
2022/01/28 06:20:12;;;;;;;19.50;9.68;;;3.20;99.90;;;;;;5008835;28;20191;-60
2022/01/28 06:22:42;;;;;;;18.00;9.77;;;3.20;99.90;;;;;;4993421;28;20274;-59
2022/01/28 06:25:09;;;;;;;18.63;8.55;;;3.20;99.90;;;;;;4993740;28;20176;-59
2022/01/28 06:27:35;;;;;;;18.50;9.57;;;3.10;99.90;;;;;;4993572;28;20176;-60
2022/01/28 06:30:04;;;;;;;18.20;9.90;;;3.00;99.90;;;;;;4994065;28;20259;-59
2022/01/28 06:32:33;;;;;;;21.50;9.50;;;3.00;99.90;;;;;;4993477;28;20200;-60
2022/01/28 06:35:07;;;;;;;18.20;9.37;;;3.00;99.90;;;;;;4992697;28;20189;-59
2022/01/28 06:37:35;;;;;;;15.63;9.20;;;3.20;99.90;;;;;;4992480;28;20549;-59
2022/01/28 06:40:01;;;;;;;18.50;9.83;;;3.20;99.90;;;;;;4993541;28;20256;-59
2022/01/28 06:42:26;;;;;;;16.95;8.98;;;3.20;99.90;;;;;;4993398;28;20212;-60
2022/01/28 06:44:52;;;;;;;18.10;9.90;;;3.20;99.90;;;;;;4993534;28;20193;-59
2022/01/28 06:47:18;;;;;;;16.35;9.68;;;3.10;99.90;;;;;;4992038;28;20199;-59
2022/01/28 06:49:44;;;;;;;13.37;9.03;;;3.00;99.90;;;;;;4993519;28;20186;-59
2022/01/28 06:52:10;;;;;;;17.77;9.27;;;3.00;99.90;;;;;;4993547;28;20201;-59
2022/01/28 06:54:35;;;;;;;17.77;9.10;;;3.10;99.90;;;;;;4993324;28;20193;-59
2022/01/28 06:57:01;;;;;;;17.30;8.83;;;3.10;99.90;;;;;;4993459;28;20184;-61
2022/01/28 06:59:26;;;;;;;15.60;9.57;;;3.10;99.90;;;;;;4993163;28;20537;-59
2022/01/28 07:01:53;;;;;;;19.93;9.00;;;3.10;99.90;;;;;;4992946;28;20215;-59
2022/01/28 07:04:19;;;;;;;21.17;9.57;;;3.00;99.90;;;;;;4993417;28;20188;-59
2022/01/28 07:06:46;;;;;;;20.70;9.23;;;3.00;99.90;;;;;;4992099;28;20180;-60
2022/01/28 07:09:12;;;;;;;18.50;9.63;;;3.00;99.90;;;;;;4995875;28;20207;-59
2022/01/28 07:11:37;;;;;;;15.27;8.67;;;3.00;99.90;;;;;;4996643;28;20208;-59
2022/01/28 07:14:03;;;;;;;13.77;9.25;;;3.00;99.90;;;;;;4997047;28;20696;-59
2022/01/28 07:16:30;;;;;;;19.90;9.70;;;3.00;99.90;;;;;;4996550;28;20540;-59
2022/01/28 07:18:56;;;;;;;19.23;9.83;;;3.00;99.90;;;;;;5011654;28;20634;-59
2022/01/28 07:21:22;;;;;;;17.03;9.57;;;3.10;99.90;;;;;;4996670;28;20658;-59
2022/01/28 07:23:47;;;;;;;17.53;9.97;;;3.10;99.90;;;;;;4996488;28;20232;-59
2022/01/28 07:26:13;;;;;;;17.07;9.33;;;3.10;99.90;;;;;;4996643;28;20238;-59
2022/01/28 07:28:41;;;;;;;16.80;9.60;;;3.10;99.90;;;;;;4996506;28;20260;-59
2022/01/28 07:31:09;;;;;;;18.33;10.37;;;3.10;99.90;;;;;;4996356;28;20542;-59
2022/01/28 07:33:35;;;;;;;21.67;11.27;;;3.10;99.90;;;;;;4996545;28;20188;-60
2022/01/28 07:36:01;;;;;;;18.00;10.70;;;3.10;99.90;;;;;;4996481;28;20189;-59
2022/01/28 07:38:26;;;;;;;16.25;9.93;;;3.10;99.90;;;;;;4996356;28;20545;-59
2022/01/28 07:40:52;;;;;;;19.13;11.20;;;3.10;99.90;;;;;;4996203;28;20183;-59
2022/01/28 07:43:18;;;;;;;21.10;11.80;;;3.10;99.90;;;;;;4994935;28;20259;-59
2022/01/28 07:45:43;;;;;;;20.60;11.43;;;3.10;99.90;;;;;;4996083;28;20178;-60
2022/01/28 07:48:09;;;;;;;20.63;11.60;;;3.10;99.90;;;;;;4996281;28;20202;-59
2022/01/28 07:50:35;;;;;;;21.47;12.00;;;3.10;99.90;;;;;;4996055;28;20179;-59
2022/01/28 07:53:03;;;;;;;17.70;11.47;;;3.20;99.90;;;;;;4996224;28;20283;-58
2022/01/28 07:55:29;;;;;;;19.23;11.80;;;3.20;99.90;;;;;;4995979;28;20190;-59
2022/01/28 07:57:54;;;;;;;23.27;11.73;;;3.20;99.90;;;;;;4995959;28;20252;-59
2022/01/28 08:00:26;;;;;;;21.43;12.73;;;3.20;99.90;;;;;;4994899;28;20292;-60
2022/01/28 08:02:52;;;;;;;22.97;13.33;;;3.20;99.90;;;;;;4994670;28;20241;-59
2022/01/28 08:05:17;;;;;;;22.17;13.00;;;3.30;99.90;;;;;;4995755;28;20227;-59
2022/01/28 08:07:44;;;;;;;18.80;12.90;;;3.30;99.90;;;;;;4995672;28;20181;-59
2022/01/28 08:10:10;;;;;;;19.30;12.77;;;3.30;99.90;;;;;;4995796;28;20237;-59
2022/01/28 08:12:45;;;;;;;26.73;13.57;;;3.30;99.90;;;;;;4994318;28;20188;-59
2022/01/28 08:15:11;;;;;;;22.93;13.40;;;3.40;99.90;;;;;;4995715;28;20191;-59
2022/01/28 08:17:37;;;;;;;25.47;13.30;;;3.40;99.90;;;;;;4995578;28;20176;-59
2022/01/28 08:20:02;;;;;;;27.47;15.33;;;3.40;99.90;;;;;;5009678;28;20220;-59
2022/01/28 08:22:28;;;;;;;30.93;17.87;;;3.50;99.90;;;;;;4995325;28;20212;-59
2022/01/28 08:24:54;;;;;;;29.20;17.07;;;3.50;99.90;;;;;;4995395;28;20771;-59
2022/01/28 08:27:19;;;;;;;25.10;15.30;;;3.50;99.90;;;;;;4995346;28;20189;-59
2022/01/28 08:29:45;;;;;;;26.43;14.87;;;3.60;99.90;;;;;;5010666;28;20184;-58
2022/01/28 08:32:11;;;;;;;27.05;15.13;;;3.70;99.90;;;;;;4995472;28;20216;-59
2022/01/28 08:34:36;;;;;;;20.90;13.88;;;3.70;99.90;;;;;;4995353;28;20208;-59
2022/01/28 08:37:03;;;;;;;22.25;14.77;;;3.70;99.90;;;;;;4995291;28;20182;-59
2022/01/28 08:39:34;;;;;;;23.27;15.38;;;3.70;99.90;;;;;;4995147;28;20185;-59
2022/01/28 08:42:00;;;;;;;29.42;15.43;;;3.80;99.90;;;;;;4995001;28;20215;-59
2022/01/28 08:44:26;;;;;;;24.57;14.43;;;3.80;99.90;;;;;;4995227;28;20550;-59
2022/01/28 08:46:52;;;;;;;21.93;14.67;;;3.90;99.90;;;;;;4995149;28;20642;-59
2022/01/28 08:49:17;;;;;;;28.95;14.75;;;3.90;99.90;;;;;;4995025;28;20227;-59
2022/01/28 08:51:44;;;;;;;24.88;15.63;;;4.00;99.90;;;;;;4995129;28;20184;-59
2022/01/28 08:54:09;;;;;;;23.00;15.50;;;4.10;99.90;;;;;;4994939;28;20193;-59
2022/01/28 08:56:35;;;;;;;21.45;16.63;;;4.10;99.90;;;;;;4994729;28;20649;-59
2022/01/28 08:59:00;;;;;;;24.48;15.85;;;4.20;99.90;;;;;;4994994;28;20632;-59
2022/01/28 09:01:28;;;;;;;23.77;15.63;;;4.20;99.90;;;;;;4994799;28;20238;-59
2022/01/28 09:03:54;;;;;;;20.50;17.38;;;4.20;99.90;;;;;;4994656;28;20180;-59
2022/01/28 09:06:20;;;;;;;26.52;17.25;;;4.40;99.90;;;;;;4994759;28;20184;-59
2022/01/28 09:08:47;;;;;;;24.63;17.17;;;4.50;99.90;;;;;;4994514;28;20700;-59
2022/01/28 09:13:48;;;;;;;32.80;20.02;;;4.60;99.90;;;;;;4994760;28;20188;-59
2022/01/28 09:16:14;;;;;;;28.00;17.75;;;4.70;99.90;;;;;;4994289;28;20593;-59
2022/01/28 09:18:40;;;;;;;32.88;19.42;;;4.70;99.90;;;;;;4994433;28;20276;-59
2022/01/28 09:21:06;;;;;;;29.20;19.40;;;4.80;99.90;;;;;;4994383;28;20750;-59
2022/01/28 09:23:32;;;;;;;30.85;20.27;;;4.80;99.90;;;;;;4994279;28;20188;-59
2022/01/28 09:25:57;;;;;;;30.80;19.92;;;4.90;99.90;;;;;;4994127;28;20180;-59
2022/01/28 09:28:23;;;;;;;29.50;19.38;;;5.00;99.90;;;;;;5009559;28;20188;-59
2022/01/28 09:30:49;;;;;;;27.52;21.27;;;5.00;99.90;;;;;;4993695;28;20188;-59
2022/01/28 09:33:15;;;;;;;37.83;22.00;;;5.10;99.90;;;;;;5009309;28;20268;-59
2022/01/28 09:35:41;;;;;;;27.88;20.05;;;5.20;99.90;;;;;;4994124;28;20263;-59
2022/01/28 09:38:08;;;;;;;29.98;21.48;;;5.20;99.90;;;;;;4993957;28;20185;-59
2022/01/28 09:40:34;;;;;;;30.90;22.60;;;5.20;99.90;;;;;;4994341;28;20173;-59
2022/01/28 09:43:03;;;;;;;32.63;22.83;;;5.30;99.90;;;;;;4994158;28;20716;-59
2022/01/28 09:45:29;;;;;;;33.17;24.60;;;5.30;99.90;;;;;;4994009;28;20216;-59
2022/01/28 09:47:56;;;;;;;36.03;24.85;;;5.40;99.90;;;;;;4993956;28;20641;-59
2022/01/28 09:50:24;;;;;;;30.70;23.45;;;5.50;99.90;;;;;;5008815;28;20238;-59
2022/01/28 09:52:51;;;;;;;32.97;22.08;;;5.60;99.90;;;;;;4993776;28;20234;-59
2022/01/28 09:55:18;;;;;;;31.45;22.90;;;5.60;99.90;;;;;;5009118;28;20180;-59
2022/01/28 09:57:47;;;;;;;35.60;24.10;;;5.70;99.90;;;;;;4993908;28;20181;-59
2022/01/28 10:00:15;;;;;;;30.13;23.23;;;5.80;99.90;;;;;;4993729;28;20177;-59
2022/01/28 10:02:47;;;;;;;33.20;22.00;;;5.80;99.90;;;;;;4993774;28;20669;-59
2022/01/28 10:05:25;;;;;;;29.20;22.52;;;5.90;99.90;;;;;;4993633;28;20191;-59
2022/01/28 10:08:13;;;;;;;30.30;23.45;;;6.00;99.90;;;;;;4993698;28;20195;-59
2022/01/28 10:10:43;;;;;;;29.13;22.55;;;5.90;99.90;;;;;;4993840;28;20176;-59
2022/01/28 10:13:14;;;;;;;31.92;24.27;;;6.00;99.90;;;;;;4993766;28;20654;-60
2022/01/28 10:15:52;;;;;;;26.40;21.23;;;6.00;99.90;;;;;;4993651;28;20558;-60
2022/01/28 10:18:18;;;;;;;33.40;23.35;;;6.10;99.90;;;;;;4994057;28;20649;-59
2022/01/28 10:20:44;;;;;;;30.02;21.77;;;6.20;99.90;;;;;;4993766;28;20177;-60
2022/01/28 10:23:13;;;;;;;37.50;24.17;;;6.30;99.90;;;;;;5008702;28;20283;-60
2022/01/28 10:25:42;;;;;;;31.58;22.17;;;6.30;99.90;;;;;;4993534;28;20260;-59
2022/01/28 10:28:11;;;;;;;28.95;21.48;;;6.50;99.90;;;;;;4993435;28;20195;-59
2022/01/28 10:30:39;;;;;;;32.13;22.38;;;6.50;99.90;;;;;;4993691;28;20181;-59
2022/01/28 10:33:24;;;;;;;35.13;24.55;;;6.60;99.90;;;;;;4992459;28;20177;-59
2022/01/28 10:35:59;;;;;;;36.05;22.65;;;6.60;99.90;;;;;;4993654;28;20183;-60
2022/01/28 10:38:32;;;;;;;31.60;21.13;;;6.70;99.90;;;;;;4993489;28;20172;-59
2022/01/28 10:41:07;;;;;;;32.35;23.38;;;6.70;99.90;;;;;;4993241;28;20626;-59
2022/01/28 10:43:40;;;;;;;33.10;22.52;;;6.80;99.90;;;;;;4995275;28;20176;-59
2022/01/28 10:46:06;;;;;;;31.45;22.83;;;6.80;99.90;;;;;;4997535;28;20256;-60
2022/01/28 10:48:32;;;;;;;29.35;23.27;;;6.90;99.90;;;;;;4997189;28;20702;-60
2022/01/28 10:50:58;;;;;;;30.35;22.98;;;7.00;99.90;;;;;;4997054;28;20275;-59
2022/01/28 10:53:27;;;;;;;31.67;24.65;;;7.00;99.90;;;;;;4997034;28;20292;-59
2022/01/28 10:55:54;;;;;;;29.17;22.73;;;7.00;99.90;;;;;;4997098;28;20231;-59
2022/01/28 10:58:25;;;;;;;35.05;23.60;;;7.10;99.90;;;;;;4997103;28;20305;-59
2022/01/28 11:00:59;;;;;;;28.85;23.98;;;7.10;99.90;;;;;;4997053;28;20188;-59
2022/01/28 11:03:27;;;;;;;36.20;24.77;;;7.10;99.90;;;;;;4996941;28;20272;-59
2022/01/28 11:05:59;;;;;;;31.50;23.65;;;7.20;99.90;;;;;;4997088;28;20216;-59
2022/01/28 11:08:31;;;;;;;31.60;25.15;;;7.30;99.90;;;;;;4997044;28;20185;-59
2022/01/28 11:10:59;;;;;;;34.42;24.10;;;7.40;99.90;;;;;;4996985;28;20195;-59
2022/01/28 11:13:25;;;;;;;29.77;23.23;;;7.40;99.90;;;;;;4996650;28;20684;-60
2022/01/28 11:15:51;;;;;;;28.88;23.00;;;7.50;99.90;;;;;;4996677;28;20181;-60
2022/01/28 11:18:18;;;;;;;27.63;22.85;;;7.50;99.90;;;;;;4996548;28;20231;-59
2022/01/28 11:21:02;;;;;;;29.77;22.33;;;7.60;99.90;;;;;;4995553;28;20634;-59
2022/01/28 11:23:40;;;;;;;30.42;23.95;;;7.60;99.90;;;;;;4995509;28;20197;-59
2022/01/28 11:26:18;;;;;;;30.73;23.42;;;7.70;99.90;;;;;;4996543;28;20225;-59
2022/01/28 11:28:45;;;;;;;31.63;23.45;;;7.80;99.90;;;;;;4996810;28;20173;-59
2022/01/28 11:31:13;;;;;;;35.80;25.40;;;7.80;99.90;;;;;;4996511;28;20189;-59
2022/01/28 11:33:50;;;;;;;36.65;25.60;;;7.80;99.90;;;;;;5011362;28;20272;-60
2022/01/28 11:36:35;;;;;;;32.38;23.17;;;7.80;99.90;;;;;;4996510;28;20180;-59
2022/01/28 11:39:08;;;;;;;40.28;26.33;;;7.90;99.90;;;;;;4996445;28;20166;-59
2022/01/28 11:41:35;;;;;;;34.80;26.52;;;7.90;99.90;;;;;;4996518;28;20201;-59
2022/01/28 11:44:01;;;;;;;32.95;25.67;;;7.90;99.90;;;;;;4996330;28;20228;-60
2022/01/28 11:46:31;;;;;;;31.10;25.77;;;7.90;99.90;;;;;;4996199;28;20272;-59
2022/01/28 11:49:04;;;;;;;34.78;26.23;;;7.90;99.90;;;;;;4996135;28;20264;-59
2022/01/28 11:51:33;;;;;;;29.83;25.13;;;7.80;99.90;;;;;;4996132;28;20197;-58
2022/01/28 11:54:05;;;;;;;30.48;24.77;;;7.70;99.90;;;;;;4996055;28;20217;-60
2022/01/28 11:56:31;;;;;;;30.10;23.27;;;7.70;99.90;;;;;;4996214;28;20180;-60
2022/01/28 11:58:58;;;;;;;30.38;25.80;;;7.60;99.90;;;;;;5011045;28;20634;-59
2022/01/28 12:01:25;;;;;;;28.27;24.25;;;7.70;99.90;;;;;;4995842;28;20208;-59
2022/01/28 12:04:26;;;;;;;28.92;22.98;;;7.70;99.90;;;;;;4995738;28;20279;-60
2022/01/28 12:06:55;;;;;;;25.88;22.58;;;7.60;99.90;;;;;;4995778;28;20180;-59
2022/01/28 13:32:45;;;;;;;42.75;30.20;;;7.00;99.90;;;;;;5017820;22;20274;-59
2022/01/28 13:35:17;;;;;;;41.42;30.65;;;7.00;99.90;;;;;;5011408;28;20165;-59
2022/01/28 13:37:47;;;;;;;40.85;31.17;;;7.20;99.90;;;;;;5011912;28;20632;-59
2022/01/28 13:40:23;;;;;;;39.70;30.42;;;7.10;99.90;;;;;;5012075;28;20191;-59
2022/01/28 13:43:09;;;;;;;44.20;31.17;;;7.10;99.90;;;;;;5011867;28;20234;-59
2022/01/28 13:45:36;;;;;;;38.85;29.75;;;7.20;99.90;;;;;;5011971;28;20519;-59
2022/01/28 13:48:04;;;;;;;39.10;28.40;;;7.20;99.90;;;;;;5011942;28;20200;-59
2022/01/28 13:50:36;;;;;;;43.60;29.75;;;7.10;99.90;;;;;;5011929;28;20175;-59
2022/01/28 13:53:33;;;;;;;44.40;31.05;;;7.30;99.90;;;;;;5011672;28;20696;-59
2022/01/28 13:56:04;;;;;;;46.08;31.05;;;7.30;99.90;;;;;;5012056;28;20526;-59
2022/01/28 13:58:46;;;;;;;41.70;28.83;;;7.20;99.90;;;;;;5011924;28;20172;-59
2022/01/28 14:01:12;;;;;;;40.83;29.98;;;7.20;99.90;;;;;;5011896;28;20184;-60
2022/01/28 14:04:18;;;;;;;41.78;30.63;;;7.30;99.90;;;;;;5011271;28;20187;-59
2022/01/28 14:06:44;;;;;;;42.15;28.70;;;7.30;99.90;;;;;;4991315;28;20200;-59
2022/01/28 14:09:17;;;;;;;37.00;27.20;;;7.10;99.90;;;;;;5011767;28;20177;-59
2022/01/28 14:11:46;;;;;;;40.05;28.10;;;7.20;99.90;;;;;;5011610;28;20195;-59
2022/01/28 14:14:19;;;;;;;43.20;28.85;;;7.20;99.90;;;;;;5011887;28;20238;-59
2022/01/28 14:16:47;;;;;;;44.92;28.92;;;7.00;99.90;;;;;;5011849;28;20188;-59
2022/01/28 14:19:14;;;;;;;44.80;28.55;;;7.10;99.90;;;;;;5014677;28;20175;-59
2022/01/28 14:21:44;;;;;;;41.22;28.33;;;7.20;99.90;;;;;;5015678;28;20611;-59
2022/01/28 14:24:14;;;;;;;44.53;29.33;;;7.20;99.90;;;;;;5015489;28;20575;-59
2022/01/28 14:26:42;;;;;;;44.45;28.73;;;7.10;99.90;;;;;;5015837;28;20173;-59
2022/01/28 14:30:02;;;;;;;42.55;29.80;;;7.00;99.90;;;;;;5014753;28;20195;-59
2022/01/28 14:31:55;;;;;;;48.22;30.58;;;7.10;99.90;;;;;;5012888;28;20294;-59
2022/01/28 14:34:22;;;;;;;51.42;32.40;;;7.10;99.90;;;;;;5017292;28;20262;-58
2022/01/28 14:36:49;;;;;;;53.58;30.42;;;7.20;99.90;;;;;;5016842;28;20191;-59
2022/01/28 14:39:17;;;;;;;51.92;32.47;;;7.20;99.90;;;;;;5016923;28;20543;-59
2022/01/28 14:41:43;;;;;;;50.28;31.92;;;7.20;99.90;;;;;;5017251;28;20210;-60
2022/01/28 14:44:10;;;;;;;48.55;30.67;;;7.20;99.90;;;;;;5017089;28;20234;-60
2022/01/28 14:46:36;;;;;;;48.20;29.60;;;7.30;99.90;;;;;;5016899;28;20256;-60
2022/01/28 14:49:05;;;;;;;45.40;30.02;;;7.30;99.90;;;;;;5016948;28;20176;-59
2022/01/28 14:51:38;;;;;;;43.45;29.60;;;7.10;99.90;;;;;;5016679;28;20206;-59
2022/01/28 14:54:05;;;;;;;44.45;29.75;;;7.10;99.90;;;;;;5016946;28;20226;-60
2022/01/28 14:56:31;;;;;;;45.25;28.70;;;7.20;99.90;;;;;;5031955;28;20224;-60
2022/01/28 14:59:00;;;;;;;40.20;28.80;;;7.20;99.90;;;;;;5016882;28;20233;-60
2022/01/28 15:01:26;;;;;;;47.70;29.95;;;7.30;99.90;;;;;;5016508;28;20667;-59
2022/01/28 15:03:53;;;;;;;41.50;27.90;;;7.20;99.90;;;;;;5016717;28;20173;-59
2022/01/28 15:06:21;;;;;;;45.83;30.42;;;7.20;99.90;;;;;;5016724;28;20184;-59
2022/01/28 15:08:49;;;;;;;46.13;30.65;;;7.30;99.90;;;;;;5016603;28;20282;-60
2022/01/28 15:11:23;;;;;;;47.25;33.20;;;7.40;99.90;;;;;;5031693;28;20173;-59
2022/01/28 15:13:49;;;;;;;47.83;31.10;;;7.40;99.90;;;;;;5016488;28;20184;-59
2022/01/28 15:16:17;;;;;;;48.00;32.45;;;7.30;99.90;;;;;;5016082;28;20204;-59
2022/01/28 15:18:44;;;;;;;51.30;32.15;;;7.20;99.90;;;;;;5016423;28;20184;-60
2022/01/28 15:21:10;;;;;;;54.70;35.47;;;7.20;99.90;;;;;;5016208;28;20638;-59
2022/01/28 15:23:36;;;;;;;48.13;32.13;;;7.20;99.90;;;;;;5031632;28;20223;-59
2022/01/28 15:26:02;;;;;;;49.63;32.85;;;7.20;99.90;;;;;;5031504;28;20180;-59
2022/01/28 15:28:36;;;;;;;47.25;32.60;;;7.20;99.90;;;;;;5015528;28;20195;-59
2022/01/28 15:36:30;;;;;;;53.38;33.15;;;7.30;99.90;;;;;;5016439;28;20190;-59
2022/01/28 15:38:56;;;;;;;54.08;35.25;;;7.20;99.90;;;;;;5015921;28;20639;-59
2022/01/28 15:41:21;;;;;;;63.33;37.05;;;7.10;99.90;;;;;;5015737;28;20683;-59
2022/01/28 15:43:47;;;;;;;61.83;35.22;;;7.10;99.90;;;;;;5015833;28;20230;-59
2022/01/28 15:46:13;;;;;;;54.85;35.88;;;7.10;99.90;;;;;;5015597;28;20226;-59
2022/01/28 15:48:38;;;;;;;54.83;36.38;;;7.00;99.90;;;;;;5015837;28;20204;-59